sensor_id;sensor_type;location;lat;lon;timestamp;P1;durP1;ratioP1;P2;durP2;ratioP2
28246;SDS011;34504;53.178;22.058;2022-10-17T00:01:14;41.78;;;26.95;;
28246;SDS011;34504;53.178;22.058;2022-10-17T00:03:42;44.45;;;26.88;;
28246;SDS011;34504;53.178;22.058;2022-10-17T00:06:11;56.33;;;30.58;;
28246;SDS011;34504;53.178;22.058;2022-10-17T00:08:40;47.78;;;27.60;;
28246;SDS011;34504;53.178;22.058;2022-10-17T00:11:13;59.70;;;32.63;;
28246;SDS011;34504;53.178;22.058;2022-10-17T00:13:43;50.28;;;29.08;;
28246;SDS011;34504;53.178;22.058;2022-10-17T00:16:12;67.50;;;35.60;;
28246;SDS011;34504;53.178;22.058;2022-10-17T00:18:44;55.05;;;29.67;;
28246;SDS011;34504;53.178;22.058;2022-10-17T00:21:15;43.33;;;26.05;;
28246;SDS011;34504;53.178;22.058;2022-10-17T00:23:44;40.42;;;25.52;;
28246;SDS011;34504;53.178;22.058;2022-10-17T00:26:13;47.50;;;29.02;;
28246;SDS011;34504;53.178;22.058;2022-10-17T00:28:42;41.50;;;25.75;;
28246;SDS011;34504;53.178;22.058;2022-10-17T00:31:17;47.40;;;27.65;;
28246;SDS011;34504;53.178;22.058;2022-10-17T00:33:49;60.65;;;29.48;;
28246;SDS011;34504;53.178;22.058;2022-10-17T00:36:21;46.72;;;28.10;;
28246;SDS011;34504;53.178;22.058;2022-10-17T00:38:52;52.90;;;35.80;;
28246;SDS011;34504;53.178;22.058;2022-10-17T00:41:23;43.90;;;28.08;;
28246;SDS011;34504;53.178;22.058;2022-10-17T00:44:06;43.00;;;28.67;;
28246;SDS011;34504;53.178;22.058;2022-10-17T00:46:58;39.78;;;26.15;;
28246;SDS011;34504;53.178;22.058;2022-10-17T00:49:30;44.50;;;27.75;;
28246;SDS011;34504;53.178;22.058;2022-10-17T00:52:02;37.20;;;25.75;;
28246;SDS011;34504;53.178;22.058;2022-10-17T00:54:36;39.58;;;25.23;;
28246;SDS011;34504;53.178;22.058;2022-10-17T00:57:07;41.97;;;27.48;;
28246;SDS011;34504;53.178;22.058;2022-10-17T00:59:36;44.22;;;26.92;;
28246;SDS011;34504;53.178;22.058;2022-10-17T01:02:13;36.75;;;24.73;;
28246;SDS011;34504;53.178;22.058;2022-10-17T01:04:44;35.50;;;25.02;;
28246;SDS011;34504;53.178;22.058;2022-10-17T01:07:14;41.40;;;26.92;;
28246;SDS011;34504;53.178;22.058;2022-10-17T01:09:43;50.30;;;30.58;;
28246;SDS011;34504;53.178;22.058;2022-10-17T01:21:05;43.17;;;25.50;;
28246;SDS011;34504;53.178;22.058;2022-10-17T01:38:33;42.85;;;26.50;;
28246;SDS011;34504;53.178;22.058;2022-10-17T01:41:10;45.80;;;30.45;;
28246;SDS011;34504;53.178;22.058;2022-10-17T01:44:07;40.78;;;27.48;;
28246;SDS011;34504;53.178;22.058;2022-10-17T01:46:49;42.80;;;28.65;;
28246;SDS011;34504;53.178;22.058;2022-10-17T01:49:25;41.15;;;26.58;;
28246;SDS011;34504;53.178;22.058;2022-10-17T01:51:57;39.72;;;24.98;;
28246;SDS011;34504;53.178;22.058;2022-10-17T01:54:44;44.58;;;29.33;;
28246;SDS011;34504;53.178;22.058;2022-10-17T01:57:25;56.65;;;35.85;;
28246;SDS011;34504;53.178;22.058;2022-10-17T01:59:58;59.63;;;35.72;;
28246;SDS011;34504;53.178;22.058;2022-10-17T02:02:28;46.43;;;31.33;;
28246;SDS011;34504;53.178;22.058;2022-10-17T02:05:01;51.55;;;32.88;;
28246;SDS011;34504;53.178;22.058;2022-10-17T02:07:35;54.92;;;36.22;;
28246;SDS011;34504;53.178;22.058;2022-10-17T02:10:03;50.90;;;31.85;;
28246;SDS011;34504;53.178;22.058;2022-10-17T02:12:52;52.30;;;33.13;;
28246;SDS011;34504;53.178;22.058;2022-10-17T02:15:52;44.92;;;29.25;;
28246;SDS011;34504;53.178;22.058;2022-10-17T02:19:11;47.35;;;30.65;;
28246;SDS011;34504;53.178;22.058;2022-10-17T02:24:50;54.63;;;33.97;;
28246;SDS011;34504;53.178;22.058;2022-10-17T02:27:35;45.40;;;29.75;;
28246;SDS011;34504;53.178;22.058;2022-10-17T02:30:12;42.28;;;27.65;;
28246;SDS011;34504;53.178;22.058;2022-10-17T02:32:42;44.22;;;28.85;;
28246;SDS011;34504;53.178;22.058;2022-10-17T02:35:24;43.53;;;28.10;;
28246;SDS011;34504;53.178;22.058;2022-10-17T02:37:59;48.75;;;29.23;;
28246;SDS011;34504;53.178;22.058;2022-10-17T02:40:28;50.05;;;30.65;;
28246;SDS011;34504;53.178;22.058;2022-10-17T02:43:00;50.28;;;30.70;;
28246;SDS011;34504;53.178;22.058;2022-10-17T02:45:29;54.05;;;35.38;;
28246;SDS011;34504;53.178;22.058;2022-10-17T02:48:14;44.42;;;27.67;;
28246;SDS011;34504;53.178;22.058;2022-10-17T02:53:43;53.65;;;33.08;;
28246;SDS011;34504;53.178;22.058;2022-10-17T02:56:40;48.03;;;30.75;;
28246;SDS011;34504;53.178;22.058;2022-10-17T02:59:15;42.28;;;28.55;;
28246;SDS011;34504;53.178;22.058;2022-10-17T03:01:48;44.95;;;29.10;;
28246;SDS011;34504;53.178;22.058;2022-10-17T03:04:17;37.78;;;25.52;;
28246;SDS011;34504;53.178;22.058;2022-10-17T03:06:46;43.40;;;28.75;;
28246;SDS011;34504;53.178;22.058;2022-10-17T03:09:15;44.10;;;26.63;;
28246;SDS011;34504;53.178;22.058;2022-10-17T03:11:43;45.08;;;27.67;;
28246;SDS011;34504;53.178;22.058;2022-10-17T03:14:11;43.83;;;28.15;;
28246;SDS011;34504;53.178;22.058;2022-10-17T03:16:40;48.67;;;28.13;;
28246;SDS011;34504;53.178;22.058;2022-10-17T03:19:08;50.60;;;27.70;;
28246;SDS011;34504;53.178;22.058;2022-10-17T03:21:36;52.30;;;28.80;;
28246;SDS011;34504;53.178;22.058;2022-10-17T03:24:06;91.32;;;31.95;;
28246;SDS011;34504;53.178;22.058;2022-10-17T03:26:35;64.95;;;29.73;;
28246;SDS011;34504;53.178;22.058;2022-10-17T03:29:03;75.72;;;29.17;;
28246;SDS011;34504;53.178;22.058;2022-10-17T03:31:33;184.95;;;32.15;;
28246;SDS011;34504;53.178;22.058;2022-10-17T03:34:01;74.13;;;27.40;;
28246;SDS011;34504;53.178;22.058;2022-10-17T03:36:30;110.00;;;29.48;;
28246;SDS011;34504;53.178;22.058;2022-10-17T03:38:58;53.78;;;26.08;;
28246;SDS011;34504;53.178;22.058;2022-10-17T03:41:26;77.32;;;25.77;;
28246;SDS011;34504;53.178;22.058;2022-10-17T03:43:54;61.15;;;25.23;;
28246;SDS011;34504;53.178;22.058;2022-10-17T03:46:23;36.78;;;23.75;;
28246;SDS011;34504;53.178;22.058;2022-10-17T03:48:53;175.40;;;27.80;;
28246;SDS011;34504;53.178;22.058;2022-10-17T03:51:21;54.97;;;25.48;;
28246;SDS011;34504;53.178;22.058;2022-10-17T03:53:53;230.13;;;34.22;;
28246;SDS011;34504;53.178;22.058;2022-10-17T03:56:22;85.25;;;28.95;;
28246;SDS011;34504;53.178;22.058;2022-10-17T03:59:08;82.07;;;26.65;;
28246;SDS011;34504;53.178;22.058;2022-10-17T04:01:39;136.73;;;28.13;;
28246;SDS011;34504;53.178;22.058;2022-10-17T04:04:08;153.68;;;26.23;;
28246;SDS011;34504;53.178;22.058;2022-10-17T04:06:37;176.98;;;29.95;;
28246;SDS011;34504;53.178;22.058;2022-10-17T04:09:06;214.55;;;31.60;;
28246;SDS011;34504;53.178;22.058;2022-10-17T04:12:03;53.58;;;22.15;;
28246;SDS011;34504;53.178;22.058;2022-10-17T04:14:32;132.35;;;26.77;;
28246;SDS011;34504;53.178;22.058;2022-10-17T04:17:01;111.97;;;26.65;;
28246;SDS011;34504;53.178;22.058;2022-10-17T04:19:30;84.47;;;23.50;;
28246;SDS011;34504;53.178;22.058;2022-10-17T04:21:59;48.10;;;23.98;;
28246;SDS011;34504;53.178;22.058;2022-10-17T04:24:33;78.40;;;22.55;;
28246;SDS011;34504;53.178;22.058;2022-10-17T04:27:08;68.20;;;23.17;;
28246;SDS011;34504;53.178;22.058;2022-10-17T04:29:42;83.32;;;22.10;;
28246;SDS011;34504;53.178;22.058;2022-10-17T04:32:16;43.47;;;20.67;;
28246;SDS011;34504;53.178;22.058;2022-10-17T04:35:04;79.93;;;22.98;;
28246;SDS011;34504;53.178;22.058;2022-10-17T04:37:33;109.82;;;26.40;;
28246;SDS011;34504;53.178;22.058;2022-10-17T04:40:07;92.10;;;26.45;;
28246;SDS011;34504;53.178;22.058;2022-10-17T04:42:36;127.43;;;28.30;;
28246;SDS011;34504;53.178;22.058;2022-10-17T04:45:05;88.40;;;28.13;;
28246;SDS011;34504;53.178;22.058;2022-10-17T04:47:35;174.85;;;30.42;;
28246;SDS011;34504;53.178;22.058;2022-10-17T04:50:04;130.98;;;30.80;;
28246;SDS011;34504;53.178;22.058;2022-10-17T04:52:34;53.78;;;24.90;;
28246;SDS011;34504;53.178;22.058;2022-10-17T04:55:07;56.97;;;23.58;;
28246;SDS011;34504;53.178;22.058;2022-10-17T04:57:35;58.60;;;24.10;;
28246;SDS011;34504;53.178;22.058;2022-10-17T05:00:11;53.33;;;24.45;;
28246;SDS011;34504;53.178;22.058;2022-10-17T05:03:00;59.80;;;25.98;;
28246;SDS011;34504;53.178;22.058;2022-10-17T05:05:29;57.17;;;24.88;;
28246;SDS011;34504;53.178;22.058;2022-10-17T05:07:57;48.53;;;26.67;;
28246;SDS011;34504;53.178;22.058;2022-10-17T05:10:29;40.10;;;24.95;;
28246;SDS011;34504;53.178;22.058;2022-10-17T05:12:58;47.20;;;27.35;;
28246;SDS011;34504;53.178;22.058;2022-10-17T05:15:31;44.33;;;26.98;;
28246;SDS011;34504;53.178;22.058;2022-10-17T05:18:00;80.32;;;28.42;;
28246;SDS011;34504;53.178;22.058;2022-10-17T05:20:31;51.55;;;28.33;;
28246;SDS011;34504;53.178;22.058;2022-10-17T05:23:00;135.40;;;49.75;;
28246;SDS011;34504;53.178;22.058;2022-10-17T05:25:34;132.23;;;52.70;;
28246;SDS011;34504;53.178;22.058;2022-10-17T05:28:02;167.55;;;55.45;;
28246;SDS011;34504;53.178;22.058;2022-10-17T05:30:30;114.60;;;49.30;;
28246;SDS011;34504;53.178;22.058;2022-10-17T05:33:04;174.77;;;67.22;;
28246;SDS011;34504;53.178;22.058;2022-10-17T05:35:33;139.25;;;56.85;;
28246;SDS011;34504;53.178;22.058;2022-10-17T05:38:01;147.98;;;44.38;;
28246;SDS011;34504;53.178;22.058;2022-10-17T05:40:32;79.38;;;36.13;;
28246;SDS011;34504;53.178;22.058;2022-10-17T05:43:02;73.70;;;33.35;;
28246;SDS011;34504;53.178;22.058;2022-10-17T05:45:30;76.45;;;32.63;;
28246;SDS011;34504;53.178;22.058;2022-10-17T05:47:59;231.82;;;48.03;;
28246;SDS011;34504;53.178;22.058;2022-10-17T05:50:27;143.35;;;45.55;;
28246;SDS011;34504;53.178;22.058;2022-10-17T05:53:03;207.77;;;55.40;;
28246;SDS011;34504;53.178;22.058;2022-10-17T05:55:37;175.55;;;59.38;;
28246;SDS011;34504;53.178;22.058;2022-10-17T05:58:06;135.43;;;45.55;;
28246;SDS011;34504;53.178;22.058;2022-10-17T06:00:42;121.97;;;39.30;;
28246;SDS011;34504;53.178;22.058;2022-10-17T06:03:30;87.93;;;32.17;;
28246;SDS011;34504;53.178;22.058;2022-10-17T06:06:03;107.97;;;29.13;;
28246;SDS011;34504;53.178;22.058;2022-10-17T06:08:34;61.97;;;27.55;;
28246;SDS011;34504;53.178;22.058;2022-10-17T06:11:02;170.70;;;33.30;;
28246;SDS011;34504;53.178;22.058;2022-10-17T06:13:36;66.10;;;28.42;;
28246;SDS011;34504;53.178;22.058;2022-10-17T06:16:11;83.95;;;30.17;;
28246;SDS011;34504;53.178;22.058;2022-10-17T06:18:40;64.63;;;28.52;;
28246;SDS011;34504;53.178;22.058;2022-10-17T06:21:08;79.05;;;32.33;;
28246;SDS011;34504;53.178;22.058;2022-10-17T06:23:45;59.67;;;26.75;;
28246;SDS011;34504;53.178;22.058;2022-10-17T06:26:19;53.97;;;26.63;;
28246;SDS011;34504;53.178;22.058;2022-10-17T06:28:48;65.22;;;31.05;;
28246;SDS011;34504;53.178;22.058;2022-10-17T06:31:16;96.32;;;34.67;;
28246;SDS011;34504;53.178;22.058;2022-10-17T06:33:45;102.95;;;39.10;;
28246;SDS011;34504;53.178;22.058;2022-10-17T06:36:13;73.13;;;35.70;;
28246;SDS011;34504;53.178;22.058;2022-10-17T06:38:43;83.25;;;35.25;;
28246;SDS011;34504;53.178;22.058;2022-10-17T06:41:27;86.22;;;33.33;;
28246;SDS011;34504;53.178;22.058;2022-10-17T06:44:03;74.18;;;33.08;;
28246;SDS011;34504;53.178;22.058;2022-10-17T06:46:37;69.47;;;34.70;;
28246;SDS011;34504;53.178;22.058;2022-10-17T06:49:08;66.43;;;33.22;;
28246;SDS011;34504;53.178;22.058;2022-10-17T06:51:57;126.07;;;41.13;;
28246;SDS011;34504;53.178;22.058;2022-10-17T06:54:35;102.38;;;51.55;;
28246;SDS011;34504;53.178;22.058;2022-10-17T06:57:21;106.00;;;53.72;;
28246;SDS011;34504;53.178;22.058;2022-10-17T07:00:03;206.27;;;45.47;;
28246;SDS011;34504;53.178;22.058;2022-10-17T07:02:41;65.97;;;34.33;;
28246;SDS011;34504;53.178;22.058;2022-10-17T07:05:12;50.72;;;29.50;;
28246;SDS011;34504;53.178;22.058;2022-10-17T07:07:40;88.20;;;28.60;;
28246;SDS011;34504;53.178;22.058;2022-10-17T07:10:11;74.47;;;25.08;;
28246;SDS011;34504;53.178;22.058;2022-10-17T07:12:40;47.67;;;26.17;;
28246;SDS011;34504;53.178;22.058;2022-10-17T07:15:08;45.33;;;25.60;;
28246;SDS011;34504;53.178;22.058;2022-10-17T07:17:37;50.10;;;27.40;;
28246;SDS011;34504;53.178;22.058;2022-10-17T07:20:06;56.97;;;27.65;;
28246;SDS011;34504;53.178;22.058;2022-10-17T07:22:36;69.22;;;29.98;;
28246;SDS011;34504;53.178;22.058;2022-10-17T07:25:06;95.28;;;31.10;;
28246;SDS011;34504;53.178;22.058;2022-10-17T07:27:57;86.28;;;27.77;;
28246;SDS011;34504;53.178;22.058;2022-10-17T07:30:26;102.95;;;28.65;;
28246;SDS011;34504;53.178;22.058;2022-10-17T07:33:07;68.57;;;29.00;;
28246;SDS011;34504;53.178;22.058;2022-10-17T07:35:36;82.05;;;32.65;;
28246;SDS011;34504;53.178;22.058;2022-10-17T07:40:36;83.93;;;35.30;;
28246;SDS011;34504;53.178;22.058;2022-10-17T07:43:04;112.18;;;35.08;;
28246;SDS011;34504;53.178;22.058;2022-10-17T07:45:36;94.53;;;37.90;;
28246;SDS011;34504;53.178;22.058;2022-10-17T07:48:07;187.90;;;50.28;;
28246;SDS011;34504;53.178;22.058;2022-10-17T07:50:35;126.68;;;47.58;;
28246;SDS011;34504;53.178;22.058;2022-10-17T07:53:03;113.55;;;46.10;;
28246;SDS011;34504;53.178;22.058;2022-10-17T07:55:31;108.20;;;47.13;;
28246;SDS011;34504;53.178;22.058;2022-10-17T07:57:58;164.10;;;55.28;;
28246;SDS011;34504;53.178;22.058;2022-10-17T08:00:27;124.45;;;47.25;;
28246;SDS011;34504;53.178;22.058;2022-10-17T08:02:57;107.40;;;43.97;;
28246;SDS011;34504;53.178;22.058;2022-10-17T08:05:26;103.55;;;42.97;;
28246;SDS011;34504;53.178;22.058;2022-10-17T08:07:54;105.68;;;43.10;;
28246;SDS011;34504;53.178;22.058;2022-10-17T08:10:22;91.30;;;40.55;;
28246;SDS011;34504;53.178;22.058;2022-10-17T08:12:56;94.50;;;40.55;;
28246;SDS011;34504;53.178;22.058;2022-10-17T08:15:25;88.47;;;39.35;;
28246;SDS011;34504;53.178;22.058;2022-10-17T08:17:57;82.15;;;39.80;;
28246;SDS011;34504;53.178;22.058;2022-10-17T08:20:26;69.97;;;37.58;;
28246;SDS011;34504;53.178;22.058;2022-10-17T08:22:54;55.97;;;30.98;;
28246;SDS011;34504;53.178;22.058;2022-10-17T08:25:23;44.85;;;28.67;;
28246;SDS011;34504;53.178;22.058;2022-10-17T08:27:53;41.63;;;27.23;;
28246;SDS011;34504;53.178;22.058;2022-10-17T08:30:21;39.22;;;25.25;;
28246;SDS011;34504;53.178;22.058;2022-10-17T08:32:49;41.25;;;27.65;;
28246;SDS011;34504;53.178;22.058;2022-10-17T08:35:17;34.60;;;24.70;;
28246;SDS011;34504;53.178;22.058;2022-10-17T08:37:47;37.78;;;25.77;;
28246;SDS011;34504;53.178;22.058;2022-10-17T08:40:23;35.55;;;25.35;;
28246;SDS011;34504;53.178;22.058;2022-10-17T08:46:04;36.58;;;25.77;;
28246;SDS011;34504;53.178;22.058;2022-10-17T08:48:37;34.60;;;24.42;;
28246;SDS011;34504;53.178;22.058;2022-10-17T08:53:54;34.95;;;24.27;;
28246;SDS011;34504;53.178;22.058;2022-10-17T08:56:44;42.25;;;27.20;;
28246;SDS011;34504;53.178;22.058;2022-10-17T08:59:26;45.55;;;30.27;;
28246;SDS011;34504;53.178;22.058;2022-10-17T09:02:09;45.80;;;30.27;;
28246;SDS011;34504;53.178;22.058;2022-10-17T09:07:59;39.97;;;27.98;;
28246;SDS011;34504;53.178;22.058;2022-10-17T09:16:23;38.90;;;26.92;;
28246;SDS011;34504;53.178;22.058;2022-10-17T09:21:42;44.35;;;26.92;;
28246;SDS011;34504;53.178;22.058;2022-10-17T09:30:24;44.40;;;29.60;;
28246;SDS011;34504;53.178;22.058;2022-10-17T09:36:02;45.42;;;32.05;;
28246;SDS011;34504;53.178;22.058;2022-10-17T09:41:53;40.65;;;28.92;;
28246;SDS011;34504;53.178;22.058;2022-10-17T09:44:30;42.33;;;28.05;;
28246;SDS011;34504;53.178;22.058;2022-10-17T09:49:44;39.28;;;27.23;;
28246;SDS011;34504;53.178;22.058;2022-10-17T09:55:17;40.47;;;26.48;;
28246;SDS011;34504;53.178;22.058;2022-10-17T10:00:26;46.20;;;31.92;;
28246;SDS011;34504;53.178;22.058;2022-10-17T10:06:00;33.08;;;22.02;;
28246;SDS011;34504;53.178;22.058;2022-10-17T10:08:33;29.98;;;21.83;;
28246;SDS011;34504;53.178;22.058;2022-10-17T10:11:04;29.23;;;21.25;;
28246;SDS011;34504;53.178;22.058;2022-10-17T10:13:46;30.08;;;21.63;;
28246;SDS011;34504;53.178;22.058;2022-10-17T10:16:19;28.38;;;21.23;;
28246;SDS011;34504;53.178;22.058;2022-10-17T10:18:50;25.63;;;19.23;;
28246;SDS011;34504;53.178;22.058;2022-10-17T10:31:48;22.35;;;17.00;;
28246;SDS011;34504;53.178;22.058;2022-10-17T10:34:25;24.15;;;18.05;;
28246;SDS011;34504;53.178;22.058;2022-10-17T10:37:01;25.73;;;17.23;;
28246;SDS011;34504;53.178;22.058;2022-10-17T10:39:43;26.02;;;19.10;;
28246;SDS011;34504;53.178;22.058;2022-10-17T10:42:17;22.25;;;17.00;;
28246;SDS011;34504;53.178;22.058;2022-10-17T10:44:58;25.15;;;18.85;;
28246;SDS011;34504;53.178;22.058;2022-10-17T10:48:22;37.25;;;23.67;;
28246;SDS011;34504;53.178;22.058;2022-10-17T10:53:58;26.67;;;18.73;;
28246;SDS011;34504;53.178;22.058;2022-10-17T10:56:48;33.85;;;20.58;;
28246;SDS011;34504;53.178;22.058;2022-10-17T10:59:21;25.17;;;18.45;;
28246;SDS011;34504;53.178;22.058;2022-10-17T11:02:13;22.15;;;17.45;;
28246;SDS011;34504;53.178;22.058;2022-10-17T11:04:51;24.92;;;17.52;;
28246;SDS011;34504;53.178;22.058;2022-10-17T11:07:34;26.98;;;17.50;;
28246;SDS011;34504;53.178;22.058;2022-10-17T11:13:05;28.88;;;19.25;;
28246;SDS011;34504;53.178;22.058;2022-10-17T11:15:41;22.75;;;16.42;;
28246;SDS011;34504;53.178;22.058;2022-10-17T11:18:27;21.08;;;15.48;;
28246;SDS011;34504;53.178;22.058;2022-10-17T11:21:22;21.83;;;14.55;;
28246;SDS011;34504;53.178;22.058;2022-10-17T11:23:58;19.48;;;13.27;;
28246;SDS011;34504;53.178;22.058;2022-10-17T11:26:39;17.80;;;12.68;;
28246;SDS011;34504;53.178;22.058;2022-10-17T11:29:26;19.20;;;13.73;;
28246;SDS011;34504;53.178;22.058;2022-10-17T11:31:57;25.08;;;15.10;;
28246;SDS011;34504;53.178;22.058;2022-10-17T11:34:55;18.17;;;12.70;;
28246;SDS011;34504;53.178;22.058;2022-10-17T11:37:34;21.95;;;14.13;;
28246;SDS011;34504;53.178;22.058;2022-10-17T11:40:17;18.40;;;13.75;;
28246;SDS011;34504;53.178;22.058;2022-10-17T11:42:57;19.35;;;14.07;;
28246;SDS011;34504;53.178;22.058;2022-10-17T11:45:45;19.63;;;13.65;;
28246;SDS011;34504;53.178;22.058;2022-10-17T11:50:48;16.20;;;12.48;;
28246;SDS011;34504;53.178;22.058;2022-10-17T11:56:13;22.00;;;14.80;;
28246;SDS011;34504;53.178;22.058;2022-10-17T11:58:55;17.15;;;13.45;;
28246;SDS011;34504;53.178;22.058;2022-10-17T12:01:37;27.02;;;14.18;;
28246;SDS011;34504;53.178;22.058;2022-10-17T12:04:16;18.83;;;13.63;;
28246;SDS011;34504;53.178;22.058;2022-10-17T12:12:07;25.63;;;17.15;;
28246;SDS011;34504;53.178;22.058;2022-10-17T12:14:44;25.88;;;18.63;;
28246;SDS011;34504;53.178;22.058;2022-10-17T12:22:56;16.17;;;10.63;;
28246;SDS011;34504;53.178;22.058;2022-10-17T12:25:30;16.08;;;10.48;;
28246;SDS011;34504;53.178;22.058;2022-10-17T12:30:48;11.80;;;9.52;;
28246;SDS011;34504;53.178;22.058;2022-10-17T12:35:49;16.20;;;9.85;;
28246;SDS011;34504;53.178;22.058;2022-10-17T12:38:20;15.13;;;10.53;;
28246;SDS011;34504;53.178;22.058;2022-10-17T12:40:59;17.42;;;12.75;;
28246;SDS011;34504;53.178;22.058;2022-10-17T12:46:02;22.40;;;12.52;;
28246;SDS011;34504;53.178;22.058;2022-10-17T12:56:35;25.90;;;18.45;;
28246;SDS011;34504;53.178;22.058;2022-10-17T13:01:46;27.38;;;20.80;;
28246;SDS011;34504;53.178;22.058;2022-10-17T13:04:17;29.05;;;19.23;;
28246;SDS011;34504;53.178;22.058;2022-10-17T13:06:47;27.67;;;20.50;;
28246;SDS011;34504;53.178;22.058;2022-10-17T13:09:25;30.20;;;21.67;;
28246;SDS011;34504;53.178;22.058;2022-10-17T13:11:54;34.53;;;22.27;;
28246;SDS011;34504;53.178;22.058;2022-10-17T13:14:24;30.13;;;22.15;;
28246;SDS011;34504;53.178;22.058;2022-10-17T13:16:54;32.92;;;23.88;;
28246;SDS011;34504;53.178;22.058;2022-10-17T13:19:28;34.85;;;23.40;;
28246;SDS011;34504;53.178;22.058;2022-10-17T13:22:21;34.65;;;24.48;;
28246;SDS011;34504;53.178;22.058;2022-10-17T13:24:52;103.00;;;73.60;;
28246;SDS011;34504;53.178;22.058;2022-10-17T13:27:33;39.90;;;28.92;;
28246;SDS011;34504;53.178;22.058;2022-10-17T13:30:19;35.45;;;25.25;;
28246;SDS011;34504;53.178;22.058;2022-10-17T13:32:56;39.40;;;26.25;;
28246;SDS011;34504;53.178;22.058;2022-10-17T13:38:18;39.72;;;27.13;;
28246;SDS011;34504;53.178;22.058;2022-10-17T13:40:50;38.03;;;26.33;;
28246;SDS011;34504;53.178;22.058;2022-10-17T13:43:31;55.72;;;33.47;;
28246;SDS011;34504;53.178;22.058;2022-10-17T13:46:00;40.60;;;27.20;;
28246;SDS011;34504;53.178;22.058;2022-10-17T13:48:52;45.72;;;28.73;;
28246;SDS011;34504;53.178;22.058;2022-10-17T13:51:20;40.30;;;27.77;;
28246;SDS011;34504;53.178;22.058;2022-10-17T13:53:49;37.78;;;26.60;;
28246;SDS011;34504;53.178;22.058;2022-10-17T13:56:18;36.08;;;26.33;;
28246;SDS011;34504;53.178;22.058;2022-10-17T13:59:00;41.28;;;28.15;;
28246;SDS011;34504;53.178;22.058;2022-10-17T14:01:35;35.75;;;26.20;;
28246;SDS011;34504;53.178;22.058;2022-10-17T14:04:04;40.22;;;26.50;;
28246;SDS011;34504;53.178;22.058;2022-10-17T14:06:45;40.10;;;27.35;;
28246;SDS011;34504;53.178;22.058;2022-10-17T14:14:26;34.17;;;25.25;;
28246;SDS011;34504;53.178;22.058;2022-10-17T14:20:00;42.05;;;28.60;;
28246;SDS011;34504;53.178;22.058;2022-10-17T14:22:53;34.15;;;24.83;;
28246;SDS011;34504;53.178;22.058;2022-10-17T14:25:42;36.40;;;25.63;;
28246;SDS011;34504;53.178;22.058;2022-10-17T14:30:44;35.00;;;25.05;;
28246;SDS011;34504;53.178;22.058;2022-10-17T14:33:29;37.65;;;25.77;;
28246;SDS011;34504;53.178;22.058;2022-10-17T14:36:01;38.38;;;27.50;;
28246;SDS011;34504;53.178;22.058;2022-10-17T14:38:30;45.70;;;30.98;;
28246;SDS011;34504;53.178;22.058;2022-10-17T14:40:59;34.95;;;26.02;;
28246;SDS011;34504;53.178;22.058;2022-10-17T14:47:15;38.22;;;25.77;;
28246;SDS011;34504;53.178;22.058;2022-10-17T14:55:39;41.15;;;27.67;;
28246;SDS011;34504;53.178;22.058;2022-10-17T14:58:13;41.47;;;27.80;;
28246;SDS011;34504;53.178;22.058;2022-10-17T15:00:49;41.47;;;28.70;;
28246;SDS011;34504;53.178;22.058;2022-10-17T15:03:17;51.47;;;34.95;;
28246;SDS011;34504;53.178;22.058;2022-10-17T15:05:46;44.70;;;30.13;;
28246;SDS011;34504;53.178;22.058;2022-10-17T15:08:15;41.55;;;28.27;;
28246;SDS011;34504;53.178;22.058;2022-10-17T15:10:46;51.33;;;31.75;;
28246;SDS011;34504;53.178;22.058;2022-10-17T15:13:15;42.75;;;28.92;;
28246;SDS011;34504;53.178;22.058;2022-10-17T15:19:01;39.42;;;27.05;;
28246;SDS011;34504;53.178;22.058;2022-10-17T15:21:29;42.83;;;29.30;;
28246;SDS011;34504;53.178;22.058;2022-10-17T15:24:06;38.75;;;27.80;;
28246;SDS011;34504;53.178;22.058;2022-10-17T15:26:34;36.90;;;27.75;;
28246;SDS011;34504;53.178;22.058;2022-10-17T15:29:05;40.35;;;25.90;;
28246;SDS011;34504;53.178;22.058;2022-10-17T15:31:34;38.47;;;26.85;;
28246;SDS011;34504;53.178;22.058;2022-10-17T15:34:01;37.00;;;26.25;;
28246;SDS011;34504;53.178;22.058;2022-10-17T15:36:32;43.22;;;27.30;;
28246;SDS011;34504;53.178;22.058;2022-10-17T15:39:08;45.88;;;27.23;;
28246;SDS011;34504;53.178;22.058;2022-10-17T15:41:36;43.58;;;26.88;;
28246;SDS011;34504;53.178;22.058;2022-10-17T15:44:04;43.55;;;29.98;;
28246;SDS011;34504;53.178;22.058;2022-10-17T15:46:34;50.22;;;31.85;;
28246;SDS011;34504;53.178;22.058;2022-10-17T15:49:04;54.58;;;34.92;;
28246;SDS011;34504;53.178;22.058;2022-10-17T15:51:34;54.55;;;35.97;;
28246;SDS011;34504;53.178;22.058;2022-10-17T15:54:02;47.45;;;32.55;;
28246;SDS011;34504;53.178;22.058;2022-10-17T15:56:36;47.30;;;32.00;;
28246;SDS011;34504;53.178;22.058;2022-10-17T15:59:10;51.65;;;34.13;;
28246;SDS011;34504;53.178;22.058;2022-10-17T16:01:41;51.70;;;35.92;;
28246;SDS011;34504;53.178;22.058;2022-10-17T16:04:10;80.70;;;55.55;;
28246;SDS011;34504;53.178;22.058;2022-10-17T16:06:41;392.05;;;261.15;;
28246;SDS011;34504;53.178;22.058;2022-10-17T16:09:12;341.40;;;253.65;;
28246;SDS011;34504;53.178;22.058;2022-10-17T16:11:41;235.90;;;171.18;;
28246;SDS011;34504;53.178;22.058;2022-10-17T16:14:15;170.88;;;132.45;;
28246;SDS011;34504;53.178;22.058;2022-10-17T16:16:47;116.95;;;93.72;;
28246;SDS011;34504;53.178;22.058;2022-10-17T16:19:17;92.53;;;73.55;;
28246;SDS011;34504;53.178;22.058;2022-10-17T16:21:52;68.28;;;47.95;;
28246;SDS011;34504;53.178;22.058;2022-10-17T16:24:22;75.50;;;48.10;;
28246;SDS011;34504;53.178;22.058;2022-10-17T16:26:51;59.80;;;39.03;;
28246;SDS011;34504;53.178;22.058;2022-10-17T16:29:22;54.75;;;35.22;;
28246;SDS011;34504;53.178;22.058;2022-10-17T16:31:50;52.05;;;35.30;;
28246;SDS011;34504;53.178;22.058;2022-10-17T16:34:18;52.08;;;34.55;;
28246;SDS011;34504;53.178;22.058;2022-10-17T16:36:49;60.15;;;40.17;;
28246;SDS011;34504;53.178;22.058;2022-10-17T16:39:17;81.28;;;59.90;;
28246;SDS011;34504;53.178;22.058;2022-10-17T16:41:45;164.90;;;116.25;;
28246;SDS011;34504;53.178;22.058;2022-10-17T16:44:14;111.93;;;79.38;;
28246;SDS011;34504;53.178;22.058;2022-10-17T16:46:44;89.90;;;61.72;;
28246;SDS011;34504;53.178;22.058;2022-10-17T16:49:11;70.07;;;47.30;;
28246;SDS011;34504;53.178;22.058;2022-10-17T16:51:42;60.03;;;42.78;;
28246;SDS011;34504;53.178;22.058;2022-10-17T16:54:10;65.18;;;44.38;;
28246;SDS011;34504;53.178;22.058;2022-10-17T16:56:38;61.13;;;41.50;;
28246;SDS011;34504;53.178;22.058;2022-10-17T16:59:08;78.20;;;46.20;;
28246;SDS011;34504;53.178;22.058;2022-10-17T17:01:37;251.50;;;99.63;;
28246;SDS011;34504;53.178;22.058;2022-10-17T17:04:05;276.95;;;111.57;;
28246;SDS011;34504;53.178;22.058;2022-10-17T17:06:35;171.10;;;80.93;;
28246;SDS011;34504;53.178;22.058;2022-10-17T17:09:04;137.93;;;74.53;;
28246;SDS011;34504;53.178;22.058;2022-10-17T17:11:32;99.38;;;57.45;;
28246;SDS011;34504;53.178;22.058;2022-10-17T17:14:07;91.63;;;56.85;;